sensor_id;sensor_type;location;lat;lon;timestamp;pressure;altitude;pressure_sealevel;temperature;humidity
68871;BME280;55906;52.278;6.808;2022-07-12T00:00:16;102327.94;;;16.91;72.83
68871;BME280;55906;52.278;6.808;2022-07-12T00:02:43;102319.84;;;16.88;73.05
68871;BME280;55906;52.278;6.808;2022-07-12T00:05:09;102329.50;;;16.85;73.06
68871;BME280;55906;52.278;6.808;2022-07-12T00:07:38;102324.13;;;16.82;73.24
68871;BME280;55906;52.278;6.808;2022-07-12T00:10:05;102323.13;;;16.77;73.13
68871;BME280;55906;52.278;6.808;2022-07-12T00:12:32;102328.41;;;16.75;73.23
68871;BME280;55906;52.278;6.808;2022-07-12T00:14:58;102331.84;;;16.71;73.30
68871;BME280;55906;52.278;6.808;2022-07-12T00:17:25;102329.09;;;16.68;73.21
68871;BME280;55906;52.278;6.808;2022-07-12T00:19:51;102321.00;;;16.63;73.37
68871;BME280;55906;52.278;6.808;2022-07-12T00:22:18;102324.44;;;16.59;73.12
68871;BME280;55906;52.278;6.808;2022-07-12T00:24:46;102316.38;;;16.56;73.28
68871;BME280;55906;52.278;6.808;2022-07-12T00:27:12;102316.31;;;16.53;73.40
68871;BME280;55906;52.278;6.808;2022-07-12T00:29:39;102313.56;;;16.50;73.24
68871;BME280;55906;52.278;6.808;2022-07-12T00:32:06;102310.84;;;16.47;73.40
68871;BME280;55906;52.278;6.808;2022-07-12T00:34:34;102305.53;;;16.47;73.48
68871;BME280;55906;52.278;6.808;2022-07-12T00:37:02;102306.56;;;16.54;72.94
68871;BME280;55906;52.278;6.808;2022-07-12T00:39:28;102304.72;;;16.50;72.84
68871;BME280;55906;52.278;6.808;2022-07-12T00:41:56;102297.56;;;16.47;73.21
68871;BME280;55906;52.278;6.808;2022-07-12T00:44:23;102293.03;;;16.43;72.80
68871;BME280;55906;52.278;6.808;2022-07-12T00:46:51;102285.94;;;16.42;73.30
68871;BME280;55906;52.278;6.808;2022-07-12T00:49:18;102295.63;;;16.40;73.56
68871;BME280;55906;52.278;6.808;2022-07-12T00:51:45;102297.84;;;16.23;73.68
68871;BME280;55906;52.278;6.808;2022-07-12T00:54:14;102287.97;;;16.18;74.56
68871;BME280;55906;52.278;6.808;2022-07-12T00:56:41;102283.44;;;16.14;74.38
68871;BME280;55906;52.278;6.808;2022-07-12T00:59:09;102271.84;;;16.10;74.32
68871;BME280;55906;52.278;6.808;2022-07-12T01:01:37;102281.47;;;16.07;74.44
68871;BME280;55906;52.278;6.808;2022-07-12T01:04:05;102280.41;;;16.00;74.57
68871;BME280;55906;52.278;6.808;2022-07-12T01:06:32;102279.47;;;15.98;74.68
68871;BME280;55906;52.278;6.808;2022-07-12T01:08:59;102288.34;;;15.98;74.67
68871;BME280;55906;52.278;6.808;2022-07-12T01:11:26;102290.88;;;15.94;74.86
68871;BME280;55906;52.278;6.808;2022-07-12T01:13:54;102292.56;;;15.90;74.84
68871;BME280;55906;52.278;6.808;2022-07-12T01:16:24;102294.34;;;15.91;75.00
68871;BME280;55906;52.278;6.808;2022-07-12T01:18:51;102296.34;;;16.00;74.61
68871;BME280;55906;52.278;6.808;2022-07-12T01:21:19;102296.06;;;15.89;75.00
68871;BME280;55906;52.278;6.808;2022-07-12T01:23:50;102293.31;;;15.86;74.96
68871;BME280;55906;52.278;6.808;2022-07-12T01:26:18;102294.91;;;15.80;74.89
68871;BME280;55906;52.278;6.808;2022-07-12T01:28:45;102301.41;;;15.91;74.79
68871;BME280;55906;52.278;6.808;2022-07-12T01:31:11;102303.16;;;15.90;74.65
68871;BME280;55906;52.278;6.808;2022-07-12T01:33:38;102300.47;;;15.89;74.63
68871;BME280;55906;52.278;6.808;2022-07-12T01:36:05;102305.75;;;15.87;74.63
68871;BME280;55906;52.278;6.808;2022-07-12T01:38:32;102302.91;;;15.81;74.68
68871;BME280;55906;52.278;6.808;2022-07-12T01:41:00;102298.28;;;15.74;75.22
68871;BME280;55906;52.278;6.808;2022-07-12T01:43:26;102312.59;;;15.79;75.08
68871;BME280;55906;52.278;6.808;2022-07-12T01:45:54;102318.84;;;15.81;74.70
68871;BME280;55906;52.278;6.808;2022-07-12T01:48:21;102319.69;;;15.80;74.76
68871;BME280;55906;52.278;6.808;2022-07-12T01:50:47;102315.19;;;15.78;74.63
68871;BME280;55906;52.278;6.808;2022-07-12T01:53:14;102321.31;;;15.75;74.72
68871;BME280;55906;52.278;6.808;2022-07-12T01:59:06;102337.88;;;15.66;74.77
68871;BME280;55906;52.278;6.808;2022-07-12T02:01:33;102341.38;;;15.65;74.86
68871;BME280;55906;52.278;6.808;2022-07-12T02:04:01;102338.59;;;15.61;75.22
68871;BME280;55906;52.278;6.808;2022-07-12T02:06:28;102333.31;;;15.61;74.94
68871;BME280;55906;52.278;6.808;2022-07-12T02:08:55;102338.47;;;15.58;74.89
68871;BME280;55906;52.278;6.808;2022-07-12T02:11:22;102343.66;;;15.55;75.20
68871;BME280;55906;52.278;6.808;2022-07-12T02:13:49;102343.56;;;15.52;75.19
68871;BME280;55906;52.278;6.808;2022-07-12T02:16:17;102336.38;;;15.48;75.29
68871;BME280;55906;52.278;6.808;2022-07-12T02:18:44;102341.59;;;15.45;75.22
68871;BME280;55906;52.278;6.808;2022-07-12T02:21:10;102335.31;;;15.41;75.11
68871;BME280;55906;52.278;6.808;2022-07-12T02:23:38;102333.47;;;15.38;75.43
68871;BME280;55906;52.278;6.808;2022-07-12T02:26:04;102336.03;;;15.35;75.09
68871;BME280;55906;52.278;6.808;2022-07-12T02:28:31;102327.13;;;15.33;75.32
68871;BME280;55906;52.278;6.808;2022-07-12T02:30:57;102337.72;;;15.33;75.30
68871;BME280;55906;52.278;6.808;2022-07-12T02:33:26;102335.94;;;15.32;75.42
68871;BME280;55906;52.278;6.808;2022-07-12T02:35:52;102335.84;;;15.29;75.34
68871;BME280;55906;52.278;6.808;2022-07-12T02:38:19;102332.16;;;15.24;75.49
68871;BME280;55906;52.278;6.808;2022-07-12T02:40:46;102340.00;;;15.21;75.54
68871;BME280;55906;52.278;6.808;2022-07-12T02:43:19;102341.75;;;15.21;75.65
68871;BME280;55906;52.278;6.808;2022-07-12T02:45:46;102336.41;;;15.19;75.57
68871;BME280;55906;52.278;6.808;2022-07-12T02:48:12;102329.25;;;15.17;75.55
68871;BME280;55906;52.278;6.808;2022-07-12T02:50:40;102332.72;;;15.14;75.59
68871;BME280;55906;52.278;6.808;2022-07-12T02:53:08;102335.28;;;15.11;75.63
68871;BME280;55906;52.278;6.808;2022-07-12T02:55:35;102336.09;;;15.09;75.73
68871;BME280;55906;52.278;6.808;2022-07-12T02:58:02;102336.94;;;15.08;75.44
68871;BME280;55906;52.278;6.808;2022-07-12T03:00:29;102332.34;;;15.02;75.41
68871;BME280;55906;52.278;6.808;2022-07-12T03:02:55;102333.19;;;15.01;75.59
68871;BME280;55906;52.278;6.808;2022-07-12T03:05:22;102335.69;;;14.96;75.55
68871;BME280;55906;52.278;6.808;2022-07-12T03:07:50;102329.50;;;14.96;75.79
68871;BME280;55906;52.278;6.808;2022-07-12T03:10:17;102333.00;;;14.95;75.93
68871;BME280;55906;52.278;6.808;2022-07-12T03:12:43;102333.84;;;14.94;75.73
68871;BME280;55906;52.278;6.808;2022-07-12T03:15:10;102319.56;;;14.89;75.79
68871;BME280;55906;52.278;6.808;2022-07-12T03:17:37;102322.13;;;14.86;75.69
68871;BME280;55906;52.278;6.808;2022-07-12T03:20:04;102333.59;;;14.86;75.79
68871;BME280;55906;52.278;6.808;2022-07-12T03:22:34;102330.88;;;14.83;75.72
68871;BME280;55906;52.278;6.808;2022-07-12T03:25:02;102333.41;;;14.80;76.03
68871;BME280;55906;52.278;6.808;2022-07-12T03:27:28;102335.16;;;14.80;75.95
68871;BME280;55906;52.278;6.808;2022-07-12T03:29:56;102330.72;;;14.79;76.07
68871;BME280;55906;52.278;6.808;2022-07-12T03:32:23;102327.97;;;14.76;76.03
68871;BME280;55906;52.278;6.808;2022-07-12T03:34:50;102342.97;;;14.75;75.97
68871;BME280;55906;52.278;6.808;2022-07-12T03:37:16;102344.63;;;14.71;76.13
68871;BME280;55906;52.278;6.808;2022-07-12T03:39:43;102341.91;;;14.70;76.29
68871;BME280;55906;52.278;6.808;2022-07-12T03:42:11;102348.16;;;14.72;76.17
68871;BME280;55906;52.278;6.808;2022-07-12T03:44:38;102348.22;;;14.73;75.93
68871;BME280;55906;52.278;6.808;2022-07-12T03:47:05;102345.63;;;14.75;75.97
68871;BME280;55906;52.278;6.808;2022-07-12T03:49:32;102342.97;;;14.75;76.08
68871;BME280;55906;52.278;6.808;2022-07-12T03:51:59;102346.50;;;14.76;75.92
68871;BME280;55906;52.278;6.808;2022-07-12T03:54:28;102342.72;;;14.67;76.11
68871;BME280;55906;52.278;6.808;2022-07-12T03:56:54;102348.13;;;14.70;76.11
68871;BME280;55906;52.278;6.808;2022-07-12T03:59:40;102347.31;;;14.73;76.20
68871;BME280;55906;52.278;6.808;2022-07-12T04:02:06;102350.06;;;14.76;76.01
68871;BME280;55906;52.278;6.808;2022-07-12T04:04:33;102347.50;;;14.79;76.04
68871;BME280;55906;52.278;6.808;2022-07-12T04:06:59;102337.00;;;14.82;75.80
68871;BME280;55906;52.278;6.808;2022-07-12T04:09:26;102336.22;;;14.85;75.76
68871;BME280;55906;52.278;6.808;2022-07-12T04:11:53;102337.22;;;14.88;75.63
68871;BME280;55906;52.278;6.808;2022-07-12T04:14:19;102330.22;;;14.90;75.87
68871;BME280;55906;52.278;6.808;2022-07-12T04:16:47;102342.59;;;14.91;75.79
68871;BME280;55906;52.278;6.808;2022-07-12T04:19:14;102335.59;;;14.93;75.82
68871;BME280;55906;52.278;6.808;2022-07-12T04:21:42;102337.50;;;14.97;75.80
68871;BME280;55906;52.278;6.808;2022-07-12T04:24:09;102333.19;;;15.01;75.76
68871;BME280;55906;52.278;6.808;2022-07-12T04:26:36;102340.38;;;15.05;75.84
68871;BME280;55906;52.278;6.808;2022-07-12T04:29:03;102337.84;;;15.08;75.70
68871;BME280;55906;52.278;6.808;2022-07-12T04:31:29;102338.88;;;15.13;75.69
68871;BME280;55906;52.278;6.808;2022-07-12T04:33:57;102339.88;;;15.17;75.68
68871;BME280;55906;52.278;6.808;2022-07-12T04:36:24;102340.00;;;15.21;75.53
68871;BME280;55906;52.278;6.808;2022-07-12T04:38:50;102332.94;;;15.22;75.46
68871;BME280;55906;52.278;6.808;2022-07-12T04:41:17;102334.84;;;15.26;75.69
68871;BME280;55906;52.278;6.808;2022-07-12T04:43:44;102337.59;;;15.29;75.79
68871;BME280;55906;52.278;6.808;2022-07-12T04:46:10;102331.47;;;15.31;75.81
68871;BME280;55906;52.278;6.808;2022-07-12T04:48:37;102335.16;;;15.36;75.76
68871;BME280;55906;52.278;6.808;2022-07-12T04:51:05;102331.75;;;15.41;75.81
68871;BME280;55906;52.278;6.808;2022-07-12T04:53:32;102332.78;;;15.46;75.84
68871;BME280;55906;52.278;6.808;2022-07-12T04:55:58;102326.75;;;15.51;75.75
68871;BME280;55906;52.278;6.808;2022-07-12T04:58:25;102327.75;;;15.55;75.74
68871;BME280;55906;52.278;6.808;2022-07-12T05:00:52;102333.38;;;15.64;75.47
68871;BME280;55906;52.278;6.808;2022-07-12T05:03:18;102336.13;;;15.67;75.62
68871;BME280;55906;52.278;6.808;2022-07-12T05:05:45;102330.13;;;15.74;75.52
68871;BME280;55906;52.278;6.808;2022-07-12T05:08:13;102327.69;;;15.82;75.71
68871;BME280;55906;52.278;6.808;2022-07-12T05:10:40;102325.25;;;15.89;75.73
68871;BME280;55906;52.278;6.808;2022-07-12T05:13:06;102333.44;;;15.97;75.74
68871;BME280;55906;52.278;6.808;2022-07-12T05:15:33;102333.34;;;15.94;76.12
68871;BME280;55906;52.278;6.808;2022-07-12T05:18:00;102342.25;;;15.96;76.39
68871;BME280;55906;52.278;6.808;2022-07-12T05:20:26;102343.34;;;16.04;76.37
68871;BME280;55906;52.278;6.808;2022-07-12T05:22:53;102344.50;;;16.14;76.10
68871;BME280;55906;52.278;6.808;2022-07-12T05:25:21;102339.44;;;16.23;76.18
68871;BME280;55906;52.278;6.808;2022-07-12T05:27:48;102344.00;;;16.28;76.21
68871;BME280;55906;52.278;6.808;2022-07-12T05:30:15;102344.22;;;16.36;76.28
68871;BME280;55906;52.278;6.808;2022-07-12T05:32:41;102340.03;;;16.46;75.96
68871;BME280;55906;52.278;6.808;2022-07-12T05:35:08;102345.53;;;16.53;76.55
68871;BME280;55906;52.278;6.808;2022-07-12T05:37:35;102348.41;;;16.62;76.31
68871;BME280;55906;52.278;6.808;2022-07-12T05:40:03;102352.19;;;16.71;76.67
68871;BME280;55906;52.278;6.808;2022-07-12T05:42:31;102350.63;;;16.79;77.28
68871;BME280;55906;52.278;6.808;2022-07-12T05:44:57;102350.78;;;16.85;76.68
68871;BME280;55906;52.278;6.808;2022-07-12T05:47:24;102365.19;;;16.93;76.54
68871;BME280;55906;52.278;6.808;2022-07-12T05:49:50;102367.16;;;17.02;76.68
68871;BME280;55906;52.278;6.808;2022-07-12T05:52:17;102365.69;;;17.14;76.01
68871;BME280;55906;52.278;6.808;2022-07-12T05:55:01;102364.13;;;17.24;76.07
68871;BME280;55906;52.278;6.808;2022-07-12T05:57:28;102371.34;;;17.30;75.75
68871;BME280;55906;52.278;6.808;2022-07-12T05:59:56;102370.69;;;17.40;75.81
68871;BME280;55906;52.278;6.808;2022-07-12T06:02:22;102371.75;;;17.48;75.83
68871;BME280;55906;52.278;6.808;2022-07-12T06:04:49;102388.81;;;17.57;76.07
68871;BME280;55906;52.278;6.808;2022-07-12T06:07:16;102373.09;;;17.68;76.04
68871;BME280;55906;52.278;6.808;2022-07-12T06:09:42;102384.09;;;17.85;75.11
68871;BME280;55906;52.278;6.808;2022-07-12T06:12:09;102380.84;;;18.00;74.90
68871;BME280;55906;52.278;6.808;2022-07-12T06:14:35;102377.41;;;18.05;74.91
68871;BME280;55906;52.278;6.808;2022-07-12T06:17:04;102375.06;;;18.20;74.53
68871;BME280;55906;52.278;6.808;2022-07-12T06:19:34;102372.63;;;18.33;74.36
68871;BME280;55906;52.278;6.808;2022-07-12T06:22:01;102371.13;;;18.48;73.69
68871;BME280;55906;52.278;6.808;2022-07-12T06:24:28;102372.38;;;18.67;73.57
68871;BME280;55906;52.278;6.808;2022-07-12T06:26:54;102377.25;;;18.93;72.53
68871;BME280;55906;52.278;6.808;2022-07-12T06:29:21;102381.97;;;19.10;72.30
68871;BME280;55906;52.278;6.808;2022-07-12T06:31:48;102377.81;;;19.31;71.48
68871;BME280;55906;52.278;6.808;2022-07-12T06:34:16;102388.09;;;19.62;70.87
68871;BME280;55906;52.278;6.808;2022-07-12T06:36:42;102369.56;;;19.76;70.70
68871;BME280;55906;52.278;6.808;2022-07-12T06:39:10;102362.69;;;19.96;69.80
68871;BME280;55906;52.278;6.808;2022-07-12T06:41:37;102374.44;;;20.10;69.51
68871;BME280;55906;52.278;6.808;2022-07-12T06:44:04;102383.56;;;20.32;68.94
68871;BME280;55906;52.278;6.808;2022-07-12T06:46:31;102384.56;;;20.40;68.33
68871;BME280;55906;52.278;6.808;2022-07-12T06:48:57;102377.47;;;20.44;67.99
68871;BME280;55906;52.278;6.808;2022-07-12T06:51:26;102384.75;;;20.60;67.57
68871;BME280;55906;52.278;6.808;2022-07-12T06:53:52;102382.09;;;20.63;66.91
68871;BME280;55906;52.278;6.808;2022-07-12T06:56:19;102384.88;;;20.72;66.46
68871;BME280;55906;52.278;6.808;2022-07-12T06:58:46;102378.69;;;20.80;66.77
68871;BME280;55906;52.278;6.808;2022-07-12T07:01:12;102382.44;;;21.01;66.24
68871;BME280;55906;52.278;6.808;2022-07-12T07:03:39;102380.75;;;21.16;66.13
68871;BME280;55906;52.278;6.808;2022-07-12T07:06:05;102366.56;;;21.24;65.26
68871;BME280;55906;52.278;6.808;2022-07-12T07:08:33;102364.88;;;21.40;65.22
68871;BME280;55906;52.278;6.808;2022-07-12T07:11:00;102365.84;;;21.56;65.20
68871;BME280;55906;52.278;6.808;2022-07-12T07:13:27;102370.31;;;21.61;65.19
68871;BME280;55906;52.278;6.808;2022-07-12T07:15:53;102373.97;;;21.76;64.82
68871;BME280;55906;52.278;6.808;2022-07-12T07:18:20;102369.44;;;21.65;63.89
68871;BME280;55906;52.278;6.808;2022-07-12T07:20:46;102371.28;;;21.76;64.17
68871;BME280;55906;52.278;6.808;2022-07-12T07:23:13;102367.72;;;21.81;64.31
68871;BME280;55906;52.278;6.808;2022-07-12T07:25:43;102374.91;;;21.93;63.49
68871;BME280;55906;52.278;6.808;2022-07-12T07:28:10;102373.16;;;21.99;63.54
68871;BME280;55906;52.278;6.808;2022-07-12T07:30:37;102369.66;;;22.11;63.36
68871;BME280;55906;52.278;6.808;2022-07-12T07:33:17;102374.16;;;22.12;63.07
68871;BME280;55906;52.278;6.808;2022-07-12T07:35:45;102377.72;;;22.16;62.51
68871;BME280;55906;52.278;6.808;2022-07-12T07:38:12;102376.81;;;22.12;62.59
68871;BME280;55906;52.278;6.808;2022-07-12T07:40:38;102379.50;;;22.15;62.12
68871;BME280;55906;52.278;6.808;2022-07-12T07:43:06;102384.00;;;22.31;61.78
68871;BME280;55906;52.278;6.808;2022-07-12T07:45:33;102387.59;;;22.35;61.58
68871;BME280;55906;52.278;6.808;2022-07-12T07:47:59;102371.50;;;22.37;61.71
68871;BME280;55906;52.278;6.808;2022-07-12T07:50:26;102375.09;;;22.52;61.31
68871;BME280;55906;52.278;6.808;2022-07-12T07:52:53;102373.31;;;22.56;60.30
68871;BME280;55906;52.278;6.808;2022-07-12T07:55:20;102377.78;;;22.60;60.71
68871;BME280;55906;52.278;6.808;2022-07-12T07:57:46;102373.31;;;22.70;60.38
68871;BME280;55906;52.278;6.808;2022-07-12T08:02:41;102375.09;;;22.78;59.09
68871;BME280;55906;52.278;6.808;2022-07-12T08:05:08;102382.28;;;22.81;58.92
68871;BME280;55906;52.278;6.808;2022-07-12T08:07:35;102378.72;;;22.85;59.00
68871;BME280;55906;52.278;6.808;2022-07-12T08:10:02;102371.53;;;22.96;59.07
68871;BME280;55906;52.278;6.808;2022-07-12T08:12:28;102381.34;;;23.20;58.49
68871;BME280;55906;52.278;6.808;2022-07-12T08:14:55;102374.16;;;23.31;57.05
68871;BME280;55906;52.278;6.808;2022-07-12T08:17:23;102372.34;;;23.45;56.45
68871;BME280;55906;52.278;6.808;2022-07-12T08:19:50;102366.97;;;23.57;56.17
68871;BME280;55906;52.278;6.808;2022-07-12T08:22:16;102361.56;;;23.67;55.58
68871;BME280;55906;52.278;6.808;2022-07-12T08:24:43;102359.69;;;23.81;54.47
68871;BME280;55906;52.278;6.808;2022-07-12T08:27:09;102368.56;;;23.98;54.68
68871;BME280;55906;52.278;6.808;2022-07-12T08:29:36;102371.19;;;24.07;54.12
68871;BME280;55906;52.278;6.808;2022-07-12T08:32:03;102382.75;;;24.24;54.33
68871;BME280;55906;52.278;6.808;2022-07-12T08:34:32;102372.88;;;24.33;54.08
68871;BME280;55906;52.278;6.808;2022-07-12T08:36:59;102376.31;;;24.50;54.11
68871;BME280;55906;52.278;6.808;2022-07-12T08:39:25;102375.44;;;24.48;53.78
68871;BME280;55906;52.278;6.808;2022-07-12T08:41:52;102370.94;;;24.51;53.33
68871;BME280;55906;52.278;6.808;2022-07-12T08:44:19;102377.06;;;24.73;53.00
68871;BME280;55906;52.278;6.808;2022-07-12T08:46:45;102382.34;;;24.85;52.48
68871;BME280;55906;52.278;6.808;2022-07-12T08:49:12;102371.44;;;25.01;52.13
68871;BME280;55906;52.278;6.808;2022-07-12T08:51:40;102377.53;;;25.19;52.05
68871;BME280;55906;52.278;6.808;2022-07-12T08:54:08;102373.81;;;25.33;51.68
68871;BME280;55906;52.278;6.808;2022-07-12T08:56:37;102378.03;;;25.57;51.29
68871;BME280;55906;52.278;6.808;2022-07-12T08:59:11;102377.13;;;25.56;49.04
68871;BME280;55906;52.278;6.808;2022-07-12T09:01:39;102368.00;;;25.69;50.28
68871;BME280;55906;52.278;6.808;2022-07-12T09:04:11;102374.06;;;25.87;49.87
68871;BME280;55906;52.278;6.808;2022-07-12T09:06:37;102381.13;;;25.97;49.98
68871;BME280;55906;52.278;6.808;2022-07-12T09:09:05;102373.81;;;26.06;49.00
68871;BME280;55906;52.278;6.808;2022-07-12T09:11:35;102367.16;;;26.32;48.96
68871;BME280;55906;52.278;6.808;2022-07-12T09:14:02;102368.22;;;26.78;47.86
68871;BME280;55906;52.278;6.808;2022-07-12T09:16:29;102360.28;;;27.19;46.35
68871;BME280;55906;52.278;6.808;2022-07-12T09:19:12;102368.41;;;27.66;43.58
68871;BME280;55906;52.278;6.808;2022-07-12T09:21:46;102365.81;;;28.02;43.97
68871;BME280;55906;52.278;6.808;2022-07-12T09:24:16;102357.44;;;28.51;43.84
68871;BME280;55906;52.278;6.808;2022-07-12T09:26:44;102357.16;;;28.63;41.94
68871;BME280;55906;52.278;6.808;2022-07-12T09:29:12;102354.81;;;28.48;41.89
68871;BME280;55906;52.278;6.808;2022-07-12T09:31:43;102347.31;;;29.27;40.89
68871;BME280;55906;52.278;6.808;2022-07-12T09:34:24;102346.97;;;30.02;40.68
68871;BME280;55906;52.278;6.808;2022-07-12T09:37:08;102334.94;;;30.91;38.27
68871;BME280;55906;52.278;6.808;2022-07-12T09:39:36;102338.47;;;31.68;38.03
68871;BME280;55906;52.278;6.808;2022-07-12T09:42:07;102340.53;;;32.08;36.61
68871;BME280;55906;52.278;6.808;2022-07-12T09:44:35;102339.84;;;32.46;35.04
68871;BME280;55906;52.278;6.808;2022-07-12T09:47:02;102343.72;;;32.63;35.61
68871;BME280;55906;52.278;6.808;2022-07-12T09:49:30;102335.81;;;32.79;34.00
68871;BME280;55906;52.278;6.808;2022-07-12T09:51:57;102342.13;;;33.40;33.81
68871;BME280;55906;52.278;6.808;2022-07-12T09:54:26;102329.31;;;33.81;34.11
68871;BME280;55906;52.278;6.808;2022-07-12T09:56:58;102325.69;;;34.72;32.32
68871;BME280;55906;52.278;6.808;2022-07-12T09:59:28;102322.19;;;34.33;31.37
68871;BME280;55906;52.278;6.808;2022-07-12T10:01:56;102318.47;;;33.98;30.64
68871;BME280;55906;52.278;6.808;2022-07-12T10:04:28;102326.84;;;34.13;31.76
68871;BME280;55906;52.278;6.808;2022-07-12T10:06:55;102319.53;;;34.85;30.91
68871;BME280;55906;52.278;6.808;2022-07-12T10:09:23;102321.28;;;35.21;29.93
68871;BME280;55906;52.278;6.808;2022-07-12T10:11:50;102321.78;;;36.09;29.00
68871;BME280;55906;52.278;6.808;2022-07-12T10:14:19;102316.22;;;36.11;29.10
68871;BME280;55906;52.278;6.808;2022-07-12T10:16:51;102318.16;;;36.24;27.70
68871;BME280;55906;52.278;6.808;2022-07-12T10:19:24;102318.78;;;36.45;28.18
68871;BME280;55906;52.278;6.808;2022-07-12T10:21:52;102318.94;;;36.58;27.80
68871;BME280;55906;52.278;6.808;2022-07-12T10:24:47;102322.50;;;36.29;26.71
68871;BME280;55906;52.278;6.808;2022-07-12T10:27:28;102328.03;;;35.31;27.61
68871;BME280;55906;52.278;6.808;2022-07-12T10:30:20;102332.22;;;35.87;26.76
68871;BME280;55906;52.278;6.808;2022-07-12T10:32:48;102326.41;;;35.10;28.21
68871;BME280;55906;52.278;6.808;2022-07-12T10:35:18;102325.00;;;35.53;28.57
68871;BME280;55906;52.278;6.808;2022-07-12T10:38:13;102320.47;;;36.16;26.18
68871;BME280;55906;52.278;6.808;2022-07-12T10:40:41;102325.34;;;36.73;27.42
68871;BME280;55906;52.278;6.808;2022-07-12T10:43:23;102324.28;;;37.05;26.08
68871;BME280;55906;52.278;6.808;2022-07-12T10:46:17;102316.00;;;37.35;25.59
68871;BME280;55906;52.278;6.808;2022-07-12T10:48:45;102316.16;;;37.61;25.71
68871;BME280;55906;52.278;6.808;2022-07-12T10:51:15;102310.94;;;36.69;25.98
68871;BME280;55906;52.278;6.808;2022-07-12T10:53:45;102313.03;;;36.50;26.27
68871;BME280;55906;52.278;6.808;2022-07-12T10:56:15;102318.88;;;36.12;27.34
68871;BME280;55906;52.278;6.808;2022-07-12T10:58:45;102318.34;;;36.21;27.17
68871;BME280;55906;52.278;6.808;2022-07-12T11:01:15;102315.16;;;36.13;27.27
68871;BME280;55906;52.278;6.808;2022-07-12T11:03:43;102301.91;;;36.67;26.73
68871;BME280;55906;52.278;6.808;2022-07-12T11:06:12;102294.81;;;37.37;26.13
68871;BME280;55906;52.278;6.808;2022-07-12T11:08:49;102298.13;;;37.71;24.41
68871;BME280;55906;52.278;6.808;2022-07-12T11:11:17;102288.63;;;38.18;25.16
68871;BME280;55906;52.278;6.808;2022-07-12T11:13:44;102296.91;;;38.30;24.24
68871;BME280;55906;52.278;6.808;2022-07-12T11:16:10;102295.50;;;37.27;25.58
68871;BME280;55906;52.278;6.808;2022-07-12T11:18:38;102290.69;;;37.44;25.99
68871;BME280;55906;52.278;6.808;2022-07-12T11:21:05;102290.19;;;37.81;25.52
68871;BME280;55906;52.278;6.808;2022-07-12T11:23:32;102294.41;;;38.13;24.90
68871;BME280;55906;52.278;6.808;2022-07-12T11:26:02;102285.63;;;37.94;25.08
68871;BME280;55906;52.278;6.808;2022-07-12T11:28:30;102291.44;;;38.70;24.67
68871;BME280;55906;52.278;6.808;2022-07-12T11:31:02;102281.75;;;38.90;24.02
68871;BME280;55906;52.278;6.808;2022-07-12T11:33:30;102289.63;;;39.34;24.00
68871;BME280;55906;52.278;6.808;2022-07-12T11:36:00;102282.59;;;39.79;23.95
68871;BME280;55906;52.278;6.808;2022-07-12T11:38:29;102280.31;;;40.34;22.76
68871;BME280;55906;52.278;6.808;2022-07-12T11:40:56;102285.09;;;40.67;22.95
68871;BME280;55906;52.278;6.808;2022-07-12T11:43:23;102290.84;;;40.52;22.68
68871;BME280;55906;52.278;6.808;2022-07-12T11:45:50;102289.00;;;39.92;22.26
68871;BME280;55906;52.278;6.808;2022-07-12T11:48:17;102285.91;;;39.10;22.48
68871;BME280;55906;52.278;6.808;2022-07-12T11:50:44;102290.41;;;39.23;22.50
68871;BME280;55906;52.278;6.808;2022-07-12T11:53:16;102278.63;;;39.83;21.09
68871;BME280;55906;52.278;6.808;2022-07-12T11:55:44;102272.69;;;39.77;21.93
68871;BME280;55906;52.278;6.808;2022-07-12T11:58:12;102283.91;;;40.82;21.55
68871;BME280;55906;52.278;6.808;2022-07-12T12:00:38;102273.56;;;40.73;20.77
68871;BME280;55906;52.278;6.808;2022-07-12T12:03:05;102273.50;;;40.50;20.05
68871;BME280;55906;52.278;6.808;2022-07-12T12:05:33;102279.66;;;40.06;20.75
68871;BME280;55906;52.278;6.808;2022-07-12T12:08:00;102267.59;;;40.31;21.52
68871;BME280;55906;52.278;6.808;2022-07-12T12:10:28;102282.78;;;39.89;21.59
68871;BME280;55906;52.278;6.808;2022-07-12T12:12:56;102284.53;;;39.66;21.78
68871;BME280;55906;52.278;6.808;2022-07-12T12:15:23;102281.31;;;38.96;21.99
68871;BME280;55906;52.278;6.808;2022-07-12T12:17:54;102271.13;;;39.49;20.96
68871;BME280;55906;52.278;6.808;2022-07-12T12:20:22;102279.72;;;39.31;20.40
68871;BME280;55906;52.278;6.808;2022-07-12T12:22:50;102272.88;;;39.50;20.33
68871;BME280;55906;52.278;6.808;2022-07-12T12:25:18;102268.63;;;40.54;19.63
68871;BME280;55906;52.278;6.808;2022-07-12T12:27:48;102271.25;;;40.79;19.17
68871;BME280;55906;52.278;6.808;2022-07-12T12:30:17;102262.22;;;40.29;19.55
68871;BME280;55906;52.278;6.808;2022-07-12T12:32:48;102263.88;;;40.32;19.40
68871;BME280;55906;52.278;6.808;2022-07-12T12:35:16;102267.56;;;40.20;19.97
68871;BME280;55906;52.278;6.808;2022-07-12T12:37:54;102262.53;;;39.77;20.35
68871;BME280;55906;52.278;6.808;2022-07-12T12:40:23;102262.06;;;40.44;19.73
68871;BME280;55906;52.278;6.808;2022-07-12T12:42:53;102252.47;;;41.29;19.73
68871;BME280;55906;52.278;6.808;2022-07-12T12:45:30;102248.44;;;41.44;19.36
68871;BME280;55906;52.278;6.808;2022-07-12T12:48:01;102245.78;;;40.98;19.48
68871;BME280;55906;52.278;6.808;2022-07-12T12:50:42;102239.19;;;40.77;18.95
68871;BME280;55906;52.278;6.808;2022-07-12T12:53:16;102243.50;;;40.81;19.14
68871;BME280;55906;52.278;6.808;2022-07-12T12:55:44;102239.50;;;41.07;19.33
68871;BME280;55906;52.278;6.808;2022-07-12T12:58:13;102240.50;;;41.06;19.04
68871;BME280;55906;52.278;6.808;2022-07-12T13:00:41;102241.06;;;40.65;20.07